createdAt,value
2023-05-14T08:01:11.870Z,94766.00
2023-05-14T08:02:11.889Z,94760.00
2023-05-14T08:03:11.961Z,94764.00
2023-05-14T08:04:11.856Z,94762.00
2023-05-14T08:05:11.836Z,94764.00
2023-05-14T08:06:11.822Z,94762.00
2023-05-14T08:07:11.831Z,94760.00
2023-05-14T08:08:11.794Z,94756.00
2023-05-14T08:09:11.795Z,94756.00
2023-05-14T08:10:11.788Z,94754.00
2023-05-14T08:11:11.799Z,94750.00
2023-05-14T08:12:11.802Z,94750.00
2023-05-14T08:13:11.754Z,94748.00
2023-05-14T08:14:11.759Z,94748.00
2023-05-14T08:15:11.763Z,94748.00
2023-05-14T08:16:11.754Z,94744.00
2023-05-14T08:17:11.747Z,94742.00
2023-05-14T08:18:11.913Z,94740.00
2023-05-14T08:19:11.839Z,94740.00
2023-05-14T08:20:11.743Z,94734.00
2023-05-14T08:21:11.725Z,94734.00
2023-05-14T08:22:11.778Z,94736.00
2023-05-14T08:23:11.808Z,94732.00
2023-05-14T08:24:11.846Z,94734.00
2023-05-14T08:25:11.825Z,94734.00
2023-05-14T08:26:11.816Z,94732.00
2023-05-14T08:27:11.854Z,94732.00
2023-05-14T08:28:11.878Z,94732.00
2023-05-14T08:29:12.943Z,94732.00
2023-05-14T08:30:11.843Z,94730.00
2023-05-14T08:31:11.873Z,94728.00
2023-05-14T08:32:22.742Z,94727.00
2023-05-14T08:33:12.888Z,94728.00
2023-05-14T08:34:11.816Z,94725.00
2023-05-14T08:35:11.832Z,94725.00
2023-05-14T08:36:11.792Z,94723.00
2023-05-14T08:37:11.825Z,94725.00
2023-05-14T08:38:11.832Z,94725.00
2023-05-14T08:39:11.815Z,94721.00
2023-05-14T08:40:11.807Z,94725.00
2023-05-14T08:41:11.790Z,94725.00
2023-05-14T08:42:11.779Z,94725.00
2023-05-14T08:43:11.802Z,94725.00
2023-05-14T08:44:11.773Z,94721.00
2023-05-14T08:45:11.757Z,94719.00
2023-05-14T08:46:11.739Z,94719.00
2023-05-14T08:47:11.782Z,94717.00
2023-05-14T08:48:11.786Z,94719.00
2023-05-14T08:49:11.930Z,94719.00
2023-05-14T08:50:11.714Z,94719.00
2023-05-14T08:51:11.718Z,94717.00
2023-05-14T08:52:11.695Z,94719.00
2023-05-14T08:53:11.722Z,94715.00
2023-05-14T08:54:11.694Z,94715.00
2023-05-14T08:55:11.698Z,94719.00
2023-05-14T08:56:11.644Z,94715.00
2023-05-14T08:57:11.681Z,94713.00
2023-05-14T08:58:11.670Z,94715.00
2023-05-14T08:59:11.640Z,94715.00
2023-05-14T09:00:11.686Z,94711.00
2023-05-14T09:01:11.653Z,94711.00
2023-05-14T09:02:11.674Z,94709.00
2023-05-14T09:03:11.670Z,94711.00
2023-05-14T09:04:11.909Z,94711.00
2023-05-14T09:05:11.767Z,94705.00
2023-05-14T09:06:11.833Z,94709.00
2023-05-14T09:07:11.824Z,94707.00
2023-05-14T09:08:11.870Z,94707.00
2023-05-14T09:09:11.934Z,94705.00
2023-05-14T09:10:11.955Z,94707.00
2023-05-14T09:11:11.994Z,94707.00
2023-05-14T09:12:12.039Z,94705.00
2023-05-14T09:13:12.062Z,94705.00
2023-05-14T09:14:12.086Z,94705.00
2023-05-14T09:15:12.120Z,94703.00
2023-05-14T09:16:12.172Z,94703.00
2023-05-14T09:17:12.143Z,94703.00
2023-05-14T09:18:12.279Z,94703.00
2023-05-14T09:19:12.371Z,94701.00
2023-05-14T09:20:12.274Z,94699.00
2023-05-14T09:21:12.338Z,94697.00
2023-05-14T09:22:12.377Z,94697.00
2023-05-14T09:23:12.366Z,94697.00
2023-05-14T09:24:12.477Z,94693.00
2023-05-14T09:25:12.601Z,94689.00
2023-05-14T09:26:12.522Z,94687.00
2023-05-14T09:27:12.562Z,94687.00
2023-05-14T09:28:12.596Z,94685.00
2023-05-14T09:29:12.625Z,94681.00
2023-05-14T09:30:12.660Z,94681.00
2023-05-14T09:31:12.689Z,94683.00
2023-05-14T09:32:12.655Z,94683.00
2023-05-14T09:33:12.695Z,94683.00
2023-05-14T09:34:12.734Z,94681.00
2023-05-14T09:35:12.779Z,94679.00
2023-05-14T09:36:12.763Z,94679.00
2023-05-14T09:37:12.825Z,94675.00
2023-05-14T09:38:12.912Z,94673.00
2023-05-14T09:39:12.939Z,94677.00
2023-05-14T09:40:12.956Z,94675.00
2023-05-14T09:41:12.972Z,94673.00
2023-05-14T09:42:12.977Z,94670.00
2023-05-14T09:43:13.010Z,94670.00
2023-05-14T09:44:13.020Z,94664.00
2023-05-14T09:45:13.043Z,94662.00
2023-05-14T09:46:13.034Z,94662.00
2023-05-14T09:47:13.118Z,94660.00
2023-05-14T09:48:13.247Z,94660.00
2023-05-14T09:49:13.138Z,94656.00
2023-05-14T09:50:13.207Z,94654.00
2023-05-14T09:51:13.154Z,94652.00
2023-05-14T09:52:13.217Z,94650.00
2023-05-14T09:53:13.268Z,94650.00
2023-05-14T09:54:13.363Z,94650.00
2023-05-14T09:55:13.450Z,94648.00
2023-05-14T09:56:13.452Z,94650.00
2023-05-14T09:57:13.438Z,94648.00
2023-05-14T09:58:13.429Z,94650.00
2023-05-14T09:59:13.494Z,94648.00
2023-05-14T10:00:13.499Z,94644.00
2023-05-14T10:01:13.593Z,94644.00
2023-05-14T10:02:13.542Z,94644.00
2023-05-14T10:03:13.607Z,94642.00
2023-05-14T10:04:13.624Z,94644.00
2023-05-14T10:05:13.649Z,94646.00
2023-05-14T10:06:13.637Z,94648.00
2023-05-14T10:07:13.642Z,94644.00
2023-05-14T10:08:13.676Z,94642.00
2023-05-14T10:09:13.996Z,94646.00
2023-05-14T10:10:13.850Z,94644.00
2023-05-14T10:11:13.865Z,94644.00
2023-05-14T10:12:13.871Z,94644.00
2023-05-14T10:13:13.885Z,94644.00
2023-05-14T10:14:13.875Z,94644.00
2023-05-14T10:15:13.914Z,94646.00
2023-05-14T10:16:13.950Z,94646.00
2023-05-14T10:17:14.014Z,94640.00
2023-05-14T10:18:14.025Z,94642.00
2023-05-14T10:19:14.063Z,94640.00
2023-05-14T10:20:14.061Z,94640.00
2023-05-14T10:21:14.096Z,94638.00
2023-05-14T10:22:14.085Z,94636.00
2023-05-14T10:23:14.123Z,94636.00
2023-05-14T10:24:14.192Z,94634.00
2023-05-14T10:25:14.280Z,94630.00
2023-05-14T10:26:14.377Z,94630.00
2023-05-14T10:27:14.441Z,94626.00
2023-05-14T10:28:14.516Z,94619.00
2023-05-14T10:29:14.581Z,94619.00
2023-05-14T10:30:14.608Z,94626.00
2023-05-14T10:31:15.071Z,94617.00
2023-05-14T10:32:14.765Z,94615.00
2023-05-14T10:33:14.880Z,94617.00
2023-05-14T10:34:14.833Z,94615.00
2023-05-14T10:35:14.862Z,94615.00
2023-05-14T10:36:14.906Z,94615.00
2023-05-14T10:37:14.991Z,94615.00
2023-05-14T10:38:15.003Z,94615.00
2023-05-14T10:39:15.049Z,94613.00
2023-05-14T10:40:15.054Z,94611.00
2023-05-14T10:41:15.097Z,94615.00
2023-05-14T10:42:15.091Z,94613.00
2023-05-14T10:43:15.158Z,94615.00
2023-05-14T10:44:15.238Z,94613.00
2023-05-14T10:45:15.277Z,94613.00
2023-05-14T10:46:15.430Z,94611.00
2023-05-14T10:47:15.468Z,94609.00
2023-05-14T10:48:15.554Z,94609.00
2023-05-14T10:49:20.658Z,94613.00
2023-05-14T10:50:16.538Z,94611.00
2023-05-14T10:51:15.568Z,94609.00
2023-05-14T10:52:15.542Z,94609.00
2023-05-14T10:53:15.532Z,94607.00
2023-05-14T10:54:15.548Z,94605.00
2023-05-14T10:55:15.557Z,94601.00
2023-05-14T10:56:15.507Z,94599.00
2023-05-14T10:57:15.506Z,94595.00
2023-05-14T10:58:15.488Z,94597.00
2023-05-14T10:59:15.539Z,94597.00
2023-05-14T11:00:15.647Z,94595.00
2023-05-14T11:01:15.684Z,94587.00
2023-05-14T11:02:15.799Z,94585.00
2023-05-14T11:03:15.888Z,94585.00
2023-05-14T11:04:16.016Z,94579.00
2023-05-14T11:05:16.198Z,94575.00
2023-05-14T11:06:16.130Z,94577.00
2023-05-14T11:07:16.115Z,94579.00
2023-05-14T11:08:16.208Z,94575.00
2023-05-14T11:09:16.237Z,94575.00
2023-05-14T11:10:16.263Z,94575.00
2023-05-14T11:11:16.307Z,94573.00
2023-05-14T11:12:16.391Z,94573.00
2023-05-14T11:13:16.400Z,94573.00
2023-05-14T11:14:16.425Z,94575.00
2023-05-14T11:15:16.537Z,94573.00
2023-05-14T11:16:23.318Z,94573.00
2023-05-14T11:17:17.600Z,94573.00
2023-05-14T11:18:16.498Z,94573.00
2023-05-14T11:19:16.611Z,94570.00
2023-05-14T11:20:16.480Z,94566.00
2023-05-14T11:21:16.538Z,94566.00
2023-05-14T11:22:16.449Z,94564.00
2023-05-14T11:23:16.484Z,94564.00
2023-05-14T11:24:16.480Z,94562.00
2023-05-14T11:25:16.464Z,94560.00
2023-05-14T11:26:16.509Z,94560.00
2023-05-14T11:27:16.512Z,94558.00
2023-05-14T11:28:16.585Z,94558.00
2023-05-14T11:29:16.626Z,94556.00
2023-05-14T11:30:16.809Z,94556.00
2023-05-14T11:31:16.787Z,94558.00
2023-05-14T11:32:16.780Z,94558.00
2023-05-14T11:33:16.895Z,94554.00
2023-05-14T11:34:16.875Z,94550.00
2023-05-14T11:35:16.968Z,94552.00
2023-05-14T11:36:16.987Z,94552.00
2023-05-14T11:37:17.033Z,94552.00
2023-05-14T11:38:17.075Z,94552.00
2023-05-14T11:39:17.137Z,94548.00
2023-05-14T11:40:17.274Z,94548.00
2023-05-14T11:41:17.201Z,94548.00
2023-05-14T11:42:17.302Z,94550.00
2023-05-14T11:43:17.378Z,94548.00
2023-05-14T11:44:17.411Z,94548.00
2023-05-14T11:45:17.448Z,94548.00
2023-05-14T11:46:17.575Z,94550.00
2023-05-14T11:47:17.588Z,94548.00
2023-05-14T11:48:17.623Z,94552.00
2023-05-14T11:49:17.671Z,94550.00
2023-05-14T11:50:17.719Z,94550.00
2023-05-14T11:51:17.787Z,94546.00
2023-05-14T11:52:17.839Z,94546.00
2023-05-14T11:53:17.854Z,94548.00
2023-05-14T11:54:17.891Z,94548.00
2023-05-14T11:55:17.976Z,94548.00
2023-05-14T11:56:18.054Z,94546.00
2023-05-14T11:57:18.116Z,94548.00
2023-05-14T11:58:18.160Z,94542.00
2023-05-14T11:59:18.221Z,94544.00
2023-05-14T12:00:18.250Z,94542.00
2023-05-14T12:01:18.318Z,94542.00
2023-05-14T12:02:18.390Z,94542.00
2023-05-14T12:03:18.507Z,94540.00
2023-05-14T12:04:18.514Z,94540.00
2023-05-14T12:05:18.624Z,94538.00
2023-05-14T12:06:18.621Z,94538.00
2023-05-14T12:07:18.633Z,94536.00
2023-05-14T12:08:18.702Z,94536.00
2023-05-14T12:09:18.724Z,94534.00
2023-05-14T12:10:18.798Z,94534.00
2023-05-14T12:11:18.809Z,94536.00
2023-05-14T12:12:18.847Z,94534.00
2023-05-14T12:13:18.889Z,94538.00
2023-05-14T12:14:18.962Z,94536.00
2023-05-14T12:15:18.993Z,94536.00
2023-05-14T12:16:19.044Z,94540.00
2023-05-14T12:17:19.083Z,94532.00
2023-05-14T12:18:24.605Z,94536.00
2023-05-14T12:19:20.110Z,94532.00
2023-05-14T12:20:19.120Z,94536.00
2023-05-14T12:21:19.108Z,94534.00
2023-05-14T12:22:19.132Z,94532.00
2023-05-14T12:23:19.072Z,94534.00
2023-05-14T12:24:19.115Z,94536.00
2023-05-14T12:25:19.039Z,94534.00
2023-05-14T12:26:19.063Z,94532.00
2023-05-14T12:27:19.062Z,94530.00
2023-05-14T12:28:19.116Z,94532.00
2023-05-14T12:29:19.189Z,94528.00
2023-05-14T12:30:21.874Z,94526.00
2023-05-14T12:31:19.231Z,94528.00
2023-05-14T12:32:19.204Z,94526.00
2023-05-14T12:33:19.221Z,94526.00
2023-05-14T12:34:19.215Z,94523.00
2023-05-14T12:35:19.194Z,94523.00
2023-05-14T12:36:22.260Z,94521.00
2023-05-14T12:37:19.202Z,94523.00
2023-05-14T12:38:19.197Z,94523.00
2023-05-14T12:39:19.161Z,94519.00
2023-05-14T12:40:19.160Z,94521.00
2023-05-14T12:41:19.178Z,94519.00
2023-05-14T12:42:19.164Z,94517.00
2023-05-14T12:43:19.163Z,94517.00
2023-05-14T12:44:19.180Z,94517.00
2023-05-14T12:45:19.135Z,94515.00
2023-05-14T12:46:19.148Z,94515.00
2023-05-14T12:47:19.253Z,94515.00
2023-05-14T12:48:19.146Z,94515.00
2023-05-14T12:49:19.120Z,94517.00
2023-05-14T12:50:19.143Z,94515.00
2023-05-14T12:51:19.109Z,94515.00
2023-05-14T12:52:26.128Z,94513.00
2023-05-14T12:53:20.076Z,94515.00
2023-05-14T12:54:19.103Z,94515.00
2023-05-14T12:55:19.078Z,94515.00
2023-05-14T12:56:19.069Z,94515.00
2023-05-14T12:57:19.055Z,94515.00
2023-05-14T12:58:19.067Z,94515.00
2023-05-14T12:59:19.034Z,94517.00
2023-05-14T13:00:19.056Z,94515.00
